sensor_id;sensor_type;location;lat;lon;timestamp;temperature;humidity
17994;DHT22;9122;48.406;9.984;2023-07-20T00:02:19;23.90;57.60
17994;DHT22;9122;48.406;9.984;2023-07-20T00:05:04;23.90;57.70
17994;DHT22;9122;48.406;9.984;2023-07-20T00:07:48;23.80;57.60
17994;DHT22;9122;48.406;9.984;2023-07-20T00:10:36;23.80;57.70
17994;DHT22;9122;48.406;9.984;2023-07-20T00:13:21;23.80;57.90
17994;DHT22;9122;48.406;9.984;2023-07-20T00:16:06;23.70;57.70
17994;DHT22;9122;48.406;9.984;2023-07-20T00:18:50;23.70;57.80
17994;DHT22;9122;48.406;9.984;2023-07-20T00:21:35;23.60;57.80
17994;DHT22;9122;48.406;9.984;2023-07-20T00:24:19;23.60;57.90
17994;DHT22;9122;48.406;9.984;2023-07-20T00:27:03;23.60;58.20
17994;DHT22;9122;48.406;9.984;2023-07-20T00:29:48;23.60;58.30
17994;DHT22;9122;48.406;9.984;2023-07-20T00:32:32;23.60;58.40
17994;DHT22;9122;48.406;9.984;2023-07-20T00:35:17;23.50;58.50
17994;DHT22;9122;48.406;9.984;2023-07-20T00:38:02;23.40;58.50
17994;DHT22;9122;48.406;9.984;2023-07-20T00:40:46;23.40;58.60
17994;DHT22;9122;48.406;9.984;2023-07-20T00:43:32;23.40;58.60
17994;DHT22;9122;48.406;9.984;2023-07-20T00:46:16;23.30;58.60
17994;DHT22;9122;48.406;9.984;2023-07-20T00:49:01;23.30;58.70
17994;DHT22;9122;48.406;9.984;2023-07-20T00:51:45;23.30;58.80
17994;DHT22;9122;48.406;9.984;2023-07-20T00:54:30;23.30;59.00
17994;DHT22;9122;48.406;9.984;2023-07-20T00:57:17;23.20;59.00
17994;DHT22;9122;48.406;9.984;2023-07-20T01:00:03;23.20;59.00
17994;DHT22;9122;48.406;9.984;2023-07-20T01:02:47;23.20;59.20
17994;DHT22;9122;48.406;9.984;2023-07-20T01:12:27;23.00;59.50
17994;DHT22;9122;48.406;9.984;2023-07-20T01:15:14;23.00;59.40
17994;DHT22;9122;48.406;9.984;2023-07-20T01:17:59;23.00;59.10
17994;DHT22;9122;48.406;9.984;2023-07-20T01:20:45;22.90;58.90
17994;DHT22;9122;48.406;9.984;2023-07-20T01:24:05;22.90;59.00
17994;DHT22;9122;48.406;9.984;2023-07-20T01:30:31;22.80;59.60
17994;DHT22;9122;48.406;9.984;2023-07-20T01:33:19;22.80;59.80
17994;DHT22;9122;48.406;9.984;2023-07-20T01:36:05;22.70;60.10
17994;DHT22;9122;48.406;9.984;2023-07-20T01:38:52;22.70;60.20
17994;DHT22;9122;48.406;9.984;2023-07-20T01:41:36;22.70;60.20
17994;DHT22;9122;48.406;9.984;2023-07-20T01:44:21;22.70;60.20
17994;DHT22;9122;48.406;9.984;2023-07-20T01:47:05;22.60;60.30
17994;DHT22;9122;48.406;9.984;2023-07-20T01:49:50;22.60;60.40
17994;DHT22;9122;48.406;9.984;2023-07-20T01:52:34;22.60;60.70
17994;DHT22;9122;48.406;9.984;2023-07-20T01:55:19;22.60;61.20
17994;DHT22;9122;48.406;9.984;2023-07-20T01:58:03;22.50;61.00
17994;DHT22;9122;48.406;9.984;2023-07-20T02:00:48;22.50;62.00
17994;DHT22;9122;48.406;9.984;2023-07-20T02:03:32;22.40;61.40
17994;DHT22;9122;48.406;9.984;2023-07-20T02:06:17;22.40;61.50
17994;DHT22;9122;48.406;9.984;2023-07-20T02:09:01;22.40;61.70
17994;DHT22;9122;48.406;9.984;2023-07-20T02:11:46;22.40;61.70
17994;DHT22;9122;48.406;9.984;2023-07-20T02:14:30;22.30;61.90
17994;DHT22;9122;48.406;9.984;2023-07-20T02:17:14;22.20;62.10
17994;DHT22;9122;48.406;9.984;2023-07-20T02:19:58;22.20;62.30
17994;DHT22;9122;48.406;9.984;2023-07-20T02:22:43;22.10;62.40
17994;DHT22;9122;48.406;9.984;2023-07-20T02:25:27;22.10;62.60
17994;DHT22;9122;48.406;9.984;2023-07-20T02:28:15;22.10;62.90
17994;DHT22;9122;48.406;9.984;2023-07-20T02:30:59;22.00;62.90
17994;DHT22;9122;48.406;9.984;2023-07-20T02:33:44;22.00;63.10
17994;DHT22;9122;48.406;9.984;2023-07-20T02:36:29;21.90;63.10
17994;DHT22;9122;48.406;9.984;2023-07-20T02:39:13;21.90;63.00
17994;DHT22;9122;48.406;9.984;2023-07-20T02:41:57;21.80;62.80
17994;DHT22;9122;48.406;9.984;2023-07-20T02:44:42;21.90;62.90
17994;DHT22;9122;48.406;9.984;2023-07-20T02:47:26;21.80;62.70
17994;DHT22;9122;48.406;9.984;2023-07-20T02:50:11;21.80;62.50
17994;DHT22;9122;48.406;9.984;2023-07-20T02:52:57;21.70;62.50
17994;DHT22;9122;48.406;9.984;2023-07-20T02:55:42;21.70;62.60
17994;DHT22;9122;48.406;9.984;2023-07-20T02:58:26;21.60;62.70
17994;DHT22;9122;48.406;9.984;2023-07-20T03:01:10;21.60;62.90
17994;DHT22;9122;48.406;9.984;2023-07-20T03:03:56;21.60;62.90
17994;DHT22;9122;48.406;9.984;2023-07-20T03:06:41;21.50;63.10
17994;DHT22;9122;48.406;9.984;2023-07-20T03:09:25;21.50;63.20
17994;DHT22;9122;48.406;9.984;2023-07-20T03:12:10;21.50;64.00
17994;DHT22;9122;48.406;9.984;2023-07-20T03:14:54;21.40;63.30
17994;DHT22;9122;48.406;9.984;2023-07-20T03:17:41;21.40;63.40
17994;DHT22;9122;48.406;9.984;2023-07-20T03:20:25;21.40;63.60
17994;DHT22;9122;48.406;9.984;2023-07-20T03:23:10;21.30;63.60
17994;DHT22;9122;48.406;9.984;2023-07-20T03:25:54;21.30;63.60
17994;DHT22;9122;48.406;9.984;2023-07-20T03:28:39;21.30;63.90
17994;DHT22;9122;48.406;9.984;2023-07-20T03:31:23;21.20;64.10
17994;DHT22;9122;48.406;9.984;2023-07-20T03:34:07;21.20;64.40
17994;DHT22;9122;48.406;9.984;2023-07-20T03:36:52;21.10;64.90
17994;DHT22;9122;48.406;9.984;2023-07-20T03:39:37;21.10;65.30
17994;DHT22;9122;48.406;9.984;2023-07-20T03:42:21;21.00;65.60
17994;DHT22;9122;48.406;9.984;2023-07-20T03:45:06;21.00;65.70
17994;DHT22;9122;48.406;9.984;2023-07-20T03:47:50;21.00;65.80
17994;DHT22;9122;48.406;9.984;2023-07-20T03:50:35;20.90;66.00
17994;DHT22;9122;48.406;9.984;2023-07-20T03:53:19;20.90;66.20
17994;DHT22;9122;48.406;9.984;2023-07-20T03:56:04;20.80;66.40
17994;DHT22;9122;48.406;9.984;2023-07-20T03:58:48;20.80;66.70
17994;DHT22;9122;48.406;9.984;2023-07-20T04:01:33;20.80;66.90
17994;DHT22;9122;48.406;9.984;2023-07-20T04:04:21;20.70;66.60
17994;DHT22;9122;48.406;9.984;2023-07-20T04:07:05;20.70;66.60
17994;DHT22;9122;48.406;9.984;2023-07-20T04:09:51;20.70;67.10
17994;DHT22;9122;48.406;9.984;2023-07-20T04:12:35;20.60;67.60
17994;DHT22;9122;48.406;9.984;2023-07-20T04:15:20;20.60;67.50
17994;DHT22;9122;48.406;9.984;2023-07-20T04:18:04;20.50;67.70
17994;DHT22;9122;48.406;9.984;2023-07-20T04:20:48;20.50;67.90
17994;DHT22;9122;48.406;9.984;2023-07-20T04:23:33;20.50;68.10
17994;DHT22;9122;48.406;9.984;2023-07-20T04:26:17;20.50;68.20
17994;DHT22;9122;48.406;9.984;2023-07-20T04:29:01;20.40;68.10
17994;DHT22;9122;48.406;9.984;2023-07-20T04:31:45;20.40;68.20
17994;DHT22;9122;48.406;9.984;2023-07-20T04:34:29;20.40;68.70
17994;DHT22;9122;48.406;9.984;2023-07-20T04:37:14;20.30;68.70
17994;DHT22;9122;48.406;9.984;2023-07-20T04:39:59;20.30;68.80
17994;DHT22;9122;48.406;9.984;2023-07-20T04:42:43;20.30;69.10
17994;DHT22;9122;48.406;9.984;2023-07-20T04:45:27;20.30;70.00
17994;DHT22;9122;48.406;9.984;2023-07-20T04:48:13;20.30;69.90
17994;DHT22;9122;48.406;9.984;2023-07-20T04:50:58;20.30;70.00
17994;DHT22;9122;48.406;9.984;2023-07-20T04:53:43;20.20;69.60
17994;DHT22;9122;48.406;9.984;2023-07-20T04:56:27;20.20;69.30
17994;DHT22;9122;48.406;9.984;2023-07-20T04:59:11;20.20;69.60
17994;DHT22;9122;48.406;9.984;2023-07-20T05:01:55;20.20;69.90
17994;DHT22;9122;48.406;9.984;2023-07-20T05:04:39;20.20;69.70
17994;DHT22;9122;48.406;9.984;2023-07-20T05:07:23;20.20;69.60
17994;DHT22;9122;48.406;9.984;2023-07-20T05:10:08;20.20;69.80
17994;DHT22;9122;48.406;9.984;2023-07-20T05:12:53;20.20;69.80
17994;DHT22;9122;48.406;9.984;2023-07-20T05:15:37;20.20;69.60
17994;DHT22;9122;48.406;9.984;2023-07-20T05:18:22;20.20;70.60
17994;DHT22;9122;48.406;9.984;2023-07-20T05:21:07;20.20;70.10
17994;DHT22;9122;48.406;9.984;2023-07-20T05:23:51;20.20;70.20
17994;DHT22;9122;48.406;9.984;2023-07-20T05:26:36;20.20;70.40
17994;DHT22;9122;48.406;9.984;2023-07-20T05:29:22;20.30;70.40
17994;DHT22;9122;48.406;9.984;2023-07-20T05:32:06;20.30;70.50
17994;DHT22;9122;48.406;9.984;2023-07-20T05:34:54;20.30;70.50
17994;DHT22;9122;48.406;9.984;2023-07-20T05:37:38;20.30;69.80
17994;DHT22;9122;48.406;9.984;2023-07-20T05:40:22;20.30;69.70
17994;DHT22;9122;48.406;9.984;2023-07-20T05:43:07;20.40;69.20
17994;DHT22;9122;48.406;9.984;2023-07-20T05:45:51;20.40;69.10
17994;DHT22;9122;48.406;9.984;2023-07-20T05:48:35;20.40;68.60
17994;DHT22;9122;48.406;9.984;2023-07-20T05:51:20;20.50;68.20
17994;DHT22;9122;48.406;9.984;2023-07-20T05:54:04;20.50;68.30
17994;DHT22;9122;48.406;9.984;2023-07-20T05:56:48;20.50;68.20
17994;DHT22;9122;48.406;9.984;2023-07-20T05:59:33;20.50;67.90
17994;DHT22;9122;48.406;9.984;2023-07-20T06:02:18;20.50;67.70
17994;DHT22;9122;48.406;9.984;2023-07-20T06:05:02;20.60;67.50
17994;DHT22;9122;48.406;9.984;2023-07-20T06:07:47;20.60;67.20
17994;DHT22;9122;48.406;9.984;2023-07-20T06:10:31;20.60;66.70
17994;DHT22;9122;48.406;9.984;2023-07-20T06:13:15;20.60;66.40
17994;DHT22;9122;48.406;9.984;2023-07-20T06:15:59;20.70;66.10
17994;DHT22;9122;48.406;9.984;2023-07-20T06:18:44;20.70;66.10
17994;DHT22;9122;48.406;9.984;2023-07-20T06:21:29;20.70;66.60
17994;DHT22;9122;48.406;9.984;2023-07-20T06:24:14;20.70;66.50
17994;DHT22;9122;48.406;9.984;2023-07-20T06:26:58;20.70;66.40
17994;DHT22;9122;48.406;9.984;2023-07-20T06:29:42;20.70;66.50
17994;DHT22;9122;48.406;9.984;2023-07-20T06:32:26;20.80;66.60
17994;DHT22;9122;48.406;9.984;2023-07-20T06:35:11;20.80;66.10
17994;DHT22;9122;48.406;9.984;2023-07-20T06:37:56;20.80;66.20
17994;DHT22;9122;48.406;9.984;2023-07-20T06:40:40;20.80;65.80
17994;DHT22;9122;48.406;9.984;2023-07-20T06:43:24;20.80;65.80
17994;DHT22;9122;48.406;9.984;2023-07-20T06:46:08;20.90;66.10
17994;DHT22;9122;48.406;9.984;2023-07-20T06:48:53;20.90;66.10
17994;DHT22;9122;48.406;9.984;2023-07-20T06:51:38;21.00;66.30
17994;DHT22;9122;48.406;9.984;2023-07-20T06:54:23;21.00;66.20
17994;DHT22;9122;48.406;9.984;2023-07-20T06:57:07;21.00;65.90
17994;DHT22;9122;48.406;9.984;2023-07-20T06:59:51;21.10;65.60
17994;DHT22;9122;48.406;9.984;2023-07-20T07:02:35;21.10;65.60
17994;DHT22;9122;48.406;9.984;2023-07-20T07:05:19;21.20;65.60
17994;DHT22;9122;48.406;9.984;2023-07-20T07:08:07;21.20;65.40
17994;DHT22;9122;48.406;9.984;2023-07-20T07:10:52;21.20;65.20
17994;DHT22;9122;48.406;9.984;2023-07-20T07:13:37;21.30;65.10
17994;DHT22;9122;48.406;9.984;2023-07-20T07:16:21;21.30;65.20
17994;DHT22;9122;48.406;9.984;2023-07-20T07:19:06;21.40;65.10
17994;DHT22;9122;48.406;9.984;2023-07-20T07:21:52;21.40;64.90
17994;DHT22;9122;48.406;9.984;2023-07-20T07:24:36;21.50;64.70
17994;DHT22;9122;48.406;9.984;2023-07-20T07:27:20;21.60;64.90
17994;DHT22;9122;48.406;9.984;2023-07-20T07:30:05;21.70;64.30
17994;DHT22;9122;48.406;9.984;2023-07-20T07:32:50;21.70;64.10
17994;DHT22;9122;48.406;9.984;2023-07-20T07:35:34;21.80;64.00
17994;DHT22;9122;48.406;9.984;2023-07-20T07:38:19;21.80;63.80
17994;DHT22;9122;48.406;9.984;2023-07-20T07:41:03;21.90;63.70
17994;DHT22;9122;48.406;9.984;2023-07-20T07:43:47;22.00;63.60
17994;DHT22;9122;48.406;9.984;2023-07-20T07:46:31;22.00;63.70
17994;DHT22;9122;48.406;9.984;2023-07-20T07:49:17;22.20;63.60
17994;DHT22;9122;48.406;9.984;2023-07-20T07:52:03;22.20;63.20
17994;DHT22;9122;48.406;9.984;2023-07-20T07:54:48;22.30;62.80
17994;DHT22;9122;48.406;9.984;2023-07-20T07:57:32;22.40;62.30
17994;DHT22;9122;48.406;9.984;2023-07-20T08:00:16;22.50;62.50
17994;DHT22;9122;48.406;9.984;2023-07-20T08:03:02;22.70;61.70
17994;DHT22;9122;48.406;9.984;2023-07-20T08:05:47;22.80;60.90
17994;DHT22;9122;48.406;9.984;2023-07-20T08:08:32;22.90;60.70
17994;DHT22;9122;48.406;9.984;2023-07-20T08:11:16;23.10;60.40
17994;DHT22;9122;48.406;9.984;2023-07-20T08:14:02;23.20;59.90
17994;DHT22;9122;48.406;9.984;2023-07-20T08:16:46;22.90;59.70
17994;DHT22;9122;48.406;9.984;2023-07-20T08:19:31;23.40;59.60
17994;DHT22;9122;48.406;9.984;2023-07-20T08:22:15;23.50;59.20
17994;DHT22;9122;48.406;9.984;2023-07-20T08:25:00;23.60;59.00
17994;DHT22;9122;48.406;9.984;2023-07-20T08:27:44;23.70;58.90
17994;DHT22;9122;48.406;9.984;2023-07-20T08:30:42;23.80;58.80
17994;DHT22;9122;48.406;9.984;2023-07-20T08:33:27;24.00;58.50
17994;DHT22;9122;48.406;9.984;2023-07-20T08:36:14;24.10;58.10
17994;DHT22;9122;48.406;9.984;2023-07-20T08:38:58;24.10;57.50
17994;DHT22;9122;48.406;9.984;2023-07-20T08:41:43;24.20;57.40
17994;DHT22;9122;48.406;9.984;2023-07-20T08:44:28;24.30;57.10
17994;DHT22;9122;48.406;9.984;2023-07-20T08:47:16;24.40;56.70
17994;DHT22;9122;48.406;9.984;2023-07-20T08:50:02;24.40;55.50
17994;DHT22;9122;48.406;9.984;2023-07-20T08:52:52;24.60;55.20
17994;DHT22;9122;48.406;9.984;2023-07-20T08:55:36;24.70;55.10
17994;DHT22;9122;48.406;9.984;2023-07-20T08:58:21;24.70;55.00
17994;DHT22;9122;48.406;9.984;2023-07-20T09:01:08;24.80;55.00
17994;DHT22;9122;48.406;9.984;2023-07-20T09:03:52;24.90;54.60
17994;DHT22;9122;48.406;9.984;2023-07-20T09:06:36;24.90;54.20
17994;DHT22;9122;48.406;9.984;2023-07-20T09:09:20;24.90;54.00
17994;DHT22;9122;48.406;9.984;2023-07-20T09:12:05;24.80;54.50
17994;DHT22;9122;48.406;9.984;2023-07-20T09:14:49;24.80;54.60
17994;DHT22;9122;48.406;9.984;2023-07-20T09:17:34;24.80;55.20
17994;DHT22;9122;48.406;9.984;2023-07-20T09:20:19;24.80;55.50
17994;DHT22;9122;48.406;9.984;2023-07-20T09:23:06;24.90;55.30
17994;DHT22;9122;48.406;9.984;2023-07-20T09:25:51;24.90;55.50
17994;DHT22;9122;48.406;9.984;2023-07-20T09:28:49;24.90;55.20
17994;DHT22;9122;48.406;9.984;2023-07-20T09:31:34;25.00;54.40
17994;DHT22;9122;48.406;9.984;2023-07-20T09:34:19;25.00;53.10
17994;DHT22;9122;48.406;9.984;2023-07-20T09:37:03;25.00;52.00
17994;DHT22;9122;48.406;9.984;2023-07-20T09:39:48;25.10;51.90
17994;DHT22;9122;48.406;9.984;2023-07-20T09:42:36;25.20;51.60
17994;DHT22;9122;48.406;9.984;2023-07-20T09:45:21;25.20;51.30
17994;DHT22;9122;48.406;9.984;2023-07-20T09:48:06;25.30;50.90
17994;DHT22;9122;48.406;9.984;2023-07-20T09:50:52;25.40;50.30
17994;DHT22;9122;48.406;9.984;2023-07-20T09:53:37;25.40;49.90
17994;DHT22;9122;48.406;9.984;2023-07-20T09:56:22;25.40;50.00
17994;DHT22;9122;48.406;9.984;2023-07-20T09:59:08;25.40;49.60
17994;DHT22;9122;48.406;9.984;2023-07-20T10:01:53;25.40;50.30
17994;DHT22;9122;48.406;9.984;2023-07-20T10:04:41;25.40;49.90
17994;DHT22;9122;48.406;9.984;2023-07-20T10:07:27;25.40;49.70
17994;DHT22;9122;48.406;9.984;2023-07-20T10:10:14;25.40;49.30
17994;DHT22;9122;48.406;9.984;2023-07-20T10:13:00;25.40;48.90
17994;DHT22;9122;48.406;9.984;2023-07-20T10:16:10;25.40;49.30
17994;DHT22;9122;48.406;9.984;2023-07-20T10:22:26;25.60;49.30
17994;DHT22;9122;48.406;9.984;2023-07-20T10:25:10;25.70;48.80
17994;DHT22;9122;48.406;9.984;2023-07-20T10:27:55;25.80;48.60
17994;DHT22;9122;48.406;9.984;2023-07-20T10:30:41;25.90;48.60
17994;DHT22;9122;48.406;9.984;2023-07-20T10:33:26;26.00;48.70
17994;DHT22;9122;48.406;9.984;2023-07-20T10:36:11;26.10;48.90
17994;DHT22;9122;48.406;9.984;2023-07-20T10:38:56;26.10;48.70
17994;DHT22;9122;48.406;9.984;2023-07-20T10:41:41;26.10;47.80
17994;DHT22;9122;48.406;9.984;2023-07-20T10:44:25;26.10;47.50
17994;DHT22;9122;48.406;9.984;2023-07-20T10:47:11;26.20;47.60
17994;DHT22;9122;48.406;9.984;2023-07-20T10:50:00;26.30;48.00
17994;DHT22;9122;48.406;9.984;2023-07-20T10:53:04;26.40;47.60
17994;DHT22;9122;48.406;9.984;2023-07-20T10:56:06;26.50;47.90
17994;DHT22;9122;48.406;9.984;2023-07-20T10:58:58;26.50;46.70
17994;DHT22;9122;48.406;9.984;2023-07-20T11:01:44;26.60;46.10
17994;DHT22;9122;48.406;9.984;2023-07-20T11:04:43;26.70;46.00
17994;DHT22;9122;48.406;9.984;2023-07-20T11:07:37;26.80;45.60
17994;DHT22;9122;48.406;9.984;2023-07-20T11:10:22;26.90;45.40
17994;DHT22;9122;48.406;9.984;2023-07-20T11:13:25;26.90;45.60
17994;DHT22;9122;48.406;9.984;2023-07-20T11:16:11;27.00;46.50
17994;DHT22;9122;48.406;9.984;2023-07-20T11:18:56;27.00;45.70
17994;DHT22;9122;48.406;9.984;2023-07-20T11:21:42;27.00;45.50
17994;DHT22;9122;48.406;9.984;2023-07-20T11:24:27;27.00;45.50
17994;DHT22;9122;48.406;9.984;2023-07-20T11:27:11;27.10;44.90
17994;DHT22;9122;48.406;9.984;2023-07-20T11:29:56;27.10;45.40
17994;DHT22;9122;48.406;9.984;2023-07-20T11:32:47;27.10;44.30
17994;DHT22;9122;48.406;9.984;2023-07-20T11:35:36;27.10;44.10
17994;DHT22;9122;48.406;9.984;2023-07-20T11:38:20;27.10;44.90
17994;DHT22;9122;48.406;9.984;2023-07-20T11:41:05;27.10;45.00
17994;DHT22;9122;48.406;9.984;2023-07-20T11:43:50;27.20;44.00
17994;DHT22;9122;48.406;9.984;2023-07-20T11:46:35;27.30;44.00
17994;DHT22;9122;48.406;9.984;2023-07-20T11:49:19;27.30;42.80
17994;DHT22;9122;48.406;9.984;2023-07-20T11:52:07;27.40;42.80
17994;DHT22;9122;48.406;9.984;2023-07-20T11:54:52;27.40;42.90
17994;DHT22;9122;48.406;9.984;2023-07-20T11:57:37;27.50;43.20
17994;DHT22;9122;48.406;9.984;2023-07-20T12:00:25;27.50;43.20
17994;DHT22;9122;48.406;9.984;2023-07-20T12:03:09;27.60;44.00
17994;DHT22;9122;48.406;9.984;2023-07-20T12:06:06;27.60;43.80
17994;DHT22;9122;48.406;9.984;2023-07-20T12:08:50;27.60;43.90
17994;DHT22;9122;48.406;9.984;2023-07-20T12:11:38;27.60;43.70
17994;DHT22;9122;48.406;9.984;2023-07-20T12:14:25;27.60;43.70
17994;DHT22;9122;48.406;9.984;2023-07-20T12:17:10;27.60;43.60
17994;DHT22;9122;48.406;9.984;2023-07-20T12:19:57;27.60;43.50
17994;DHT22;9122;48.406;9.984;2023-07-20T12:22:43;27.60;43.50
17994;DHT22;9122;48.406;9.984;2023-07-20T12:28:28;27.60;43.50
17994;DHT22;9122;48.406;9.984;2023-07-20T12:31:13;27.60;43.70
17994;DHT22;9122;48.406;9.984;2023-07-20T12:33:58;27.50;43.20
17994;DHT22;9122;48.406;9.984;2023-07-20T12:36:42;27.50;43.20
17994;DHT22;9122;48.406;9.984;2023-07-20T12:39:26;27.50;43.60
17994;DHT22;9122;48.406;9.984;2023-07-20T12:42:10;27.50;43.80
17994;DHT22;9122;48.406;9.984;2023-07-20T12:44:54;27.50;43.60
17994;DHT22;9122;48.406;9.984;2023-07-20T12:47:38;27.60;43.80
17994;DHT22;9122;48.406;9.984;2023-07-20T12:50:22;27.60;43.60
17994;DHT22;9122;48.406;9.984;2023-07-20T12:53:07;27.60;43.70
17994;DHT22;9122;48.406;9.984;2023-07-20T12:55:51;27.60;43.70
17994;DHT22;9122;48.406;9.984;2023-07-20T12:58:35;27.70;43.30
17994;DHT22;9122;48.406;9.984;2023-07-20T13:01:21;27.70;43.10
17994;DHT22;9122;48.406;9.984;2023-07-20T13:04:05;27.70;43.20
17994;DHT22;9122;48.406;9.984;2023-07-20T13:06:49;27.70;42.50
17994;DHT22;9122;48.406;9.984;2023-07-20T13:09:33;27.70;42.80
17994;DHT22;9122;48.406;9.984;2023-07-20T13:12:17;27.70;42.80
17994;DHT22;9122;48.406;9.984;2023-07-20T13:15:03;27.70;42.80
17994;DHT22;9122;48.406;9.984;2023-07-20T13:17:50;27.70;43.20
17994;DHT22;9122;48.406;9.984;2023-07-20T13:20:35;27.70;43.10
17994;DHT22;9122;48.406;9.984;2023-07-20T13:23:19;27.70;42.70
17994;DHT22;9122;48.406;9.984;2023-07-20T13:26:04;27.70;42.60
17994;DHT22;9122;48.406;9.984;2023-07-20T13:28:49;27.70;42.80
17994;DHT22;9122;48.406;9.984;2023-07-20T13:31:33;27.80;42.70
17994;DHT22;9122;48.406;9.984;2023-07-20T13:34:17;27.80;42.30
17994;DHT22;9122;48.406;9.984;2023-07-20T13:37:02;27.80;42.00
17994;DHT22;9122;48.406;9.984;2023-07-20T13:39:46;27.80;42.00
17994;DHT22;9122;48.406;9.984;2023-07-20T13:42:31;27.80;42.10
17994;DHT22;9122;48.406;9.984;2023-07-20T13:45:16;27.80;42.30
17994;DHT22;9122;48.406;9.984;2023-07-20T13:48:01;27.80;42.50
17994;DHT22;9122;48.406;9.984;2023-07-20T13:50:47;27.80;42.30
17994;DHT22;9122;48.406;9.984;2023-07-20T13:53:31;27.80;42.40
17994;DHT22;9122;48.406;9.984;2023-07-20T13:56:16;27.70;42.20
17994;DHT22;9122;48.406;9.984;2023-07-20T13:59:00;27.70;41.40
17994;DHT22;9122;48.406;9.984;2023-07-20T14:01:45;27.70;41.00
17994;DHT22;9122;48.406;9.984;2023-07-20T14:04:29;27.70;40.90
17994;DHT22;9122;48.406;9.984;2023-07-20T14:07:14;27.70;41.40
17994;DHT22;9122;48.406;9.984;2023-07-20T14:09:58;27.70;41.50
17994;DHT22;9122;48.406;9.984;2023-07-20T14:12:43;27.70;41.30
17994;DHT22;9122;48.406;9.984;2023-07-20T14:15:28;27.60;41.20
17994;DHT22;9122;48.406;9.984;2023-07-20T14:18:12;27.60;40.70
17994;DHT22;9122;48.406;9.984;2023-07-20T14:20:57;27.60;41.10
17994;DHT22;9122;48.406;9.984;2023-07-20T14:23:41;27.60;41.60
17994;DHT22;9122;48.406;9.984;2023-07-20T14:26:25;27.60;41.10
17994;DHT22;9122;48.406;9.984;2023-07-20T14:29:10;27.60;41.30
17994;DHT22;9122;48.406;9.984;2023-07-20T14:31:54;27.60;40.80
17994;DHT22;9122;48.406;9.984;2023-07-20T14:34:39;27.60;40.90
17994;DHT22;9122;48.406;9.984;2023-07-20T14:37:24;27.60;40.90
17994;DHT22;9122;48.406;9.984;2023-07-20T14:40:09;27.50;40.90
17994;DHT22;9122;48.406;9.984;2023-07-20T14:42:58;27.50;41.00
17994;DHT22;9122;48.406;9.984;2023-07-20T14:45:44;27.50;41.00
17994;DHT22;9122;48.406;9.984;2023-07-20T14:48:29;27.50;41.20
17994;DHT22;9122;48.406;9.984;2023-07-20T14:51:13;27.50;42.00
17994;DHT22;9122;48.406;9.984;2023-07-20T14:53:58;27.50;41.70
17994;DHT22;9122;48.406;9.984;2023-07-20T14:56:49;27.50;41.50
17994;DHT22;9122;48.406;9.984;2023-07-20T14:59:36;27.50;41.40
17994;DHT22;9122;48.406;9.984;2023-07-20T15:02:20;27.50;41.20
17994;DHT22;9122;48.406;9.984;2023-07-20T15:05:07;27.50;41.30
17994;DHT22;9122;48.406;9.984;2023-07-20T15:07:52;27.50;41.60
17994;DHT22;9122;48.406;9.984;2023-07-20T15:10:37;27.50;41.80
17994;DHT22;9122;48.406;9.984;2023-07-20T15:13:21;27.50;41.40
17994;DHT22;9122;48.406;9.984;2023-07-20T15:16:06;27.50;41.40
17994;DHT22;9122;48.406;9.984;2023-07-20T15:18:51;27.40;41.10
17994;DHT22;9122;48.406;9.984;2023-07-20T15:21:35;27.40;41.10
17994;DHT22;9122;48.406;9.984;2023-07-20T15:24:19;27.40;41.10
17994;DHT22;9122;48.406;9.984;2023-07-20T15:27:03;27.40;41.00
17994;DHT22;9122;48.406;9.984;2023-07-20T15:29:51;27.40;41.10
17994;DHT22;9122;48.406;9.984;2023-07-20T15:32:45;27.40;40.90
17994;DHT22;9122;48.406;9.984;2023-07-20T15:35:29;27.40;40.90
17994;DHT22;9122;48.406;9.984;2023-07-20T15:38:14;27.40;40.70
17994;DHT22;9122;48.406;9.984;2023-07-20T15:40:58;27.40;40.60
17994;DHT22;9122;48.406;9.984;2023-07-20T15:43:46;27.40;40.80
17994;DHT22;9122;48.406;9.984;2023-07-20T15:49:24;27.30;40.80
17994;DHT22;9122;48.406;9.984;2023-07-20T15:52:09;27.30;41.00
17994;DHT22;9122;48.406;9.984;2023-07-20T15:54:55;27.40;41.30
17994;DHT22;9122;48.406;9.984;2023-07-20T15:57:40;27.40;41.60
17994;DHT22;9122;48.406;9.984;2023-07-20T16:00:24;27.30;41.40
17994;DHT22;9122;48.406;9.984;2023-07-20T16:03:09;27.30;41.30
17994;DHT22;9122;48.406;9.984;2023-07-20T16:05:55;27.30;41.10
17994;DHT22;9122;48.406;9.984;2023-07-20T16:08:39;27.30;42.20
17994;DHT22;9122;48.406;9.984;2023-07-20T16:11:24;27.30;41.60
17994;DHT22;9122;48.406;9.984;2023-07-20T16:14:08;27.20;42.70
17994;DHT22;9122;48.406;9.984;2023-07-20T16:16:53;27.20;43.90
17994;DHT22;9122;48.406;9.984;2023-07-20T16:19:37;27.20;43.00
17994;DHT22;9122;48.406;9.984;2023-07-20T16:22:22;27.20;42.10
17994;DHT22;9122;48.406;9.984;2023-07-20T16:25:08;27.20;43.60
17994;DHT22;9122;48.406;9.984;2023-07-20T16:27:53;27.20;44.10
17994;DHT22;9122;48.406;9.984;2023-07-20T16:30:37;27.20;43.00
17994;DHT22;9122;48.406;9.984;2023-07-20T16:33:21;27.20;42.60
17994;DHT22;9122;48.406;9.984;2023-07-20T16:36:09;27.20;42.30
17994;DHT22;9122;48.406;9.984;2023-07-20T16:38:54;27.10;42.50
17994;DHT22;9122;48.406;9.984;2023-07-20T16:41:38;27.10;42.50
17994;DHT22;9122;48.406;9.984;2023-07-20T16:44:22;27.10;42.50
17994;DHT22;9122;48.406;9.984;2023-07-20T16:47:07;27.10;42.80
17994;DHT22;9122;48.406;9.984;2023-07-20T16:49:52;27.10;42.30
17994;DHT22;9122;48.406;9.984;2023-07-20T16:52:36;27.10;42.40
17994;DHT22;9122;48.406;9.984;2023-07-20T16:55:21;27.00;42.20
17994;DHT22;9122;48.406;9.984;2023-07-20T16:58:05;27.00;41.90
17994;DHT22;9122;48.406;9.984;2023-07-20T17:00:49;27.00;43.20
17994;DHT22;9122;48.406;9.984;2023-07-20T17:03:34;27.00;42.60
17994;DHT22;9122;48.406;9.984;2023-07-20T17:06:20;27.00;42.60
17994;DHT22;9122;48.406;9.984;2023-07-20T17:09:04;27.00;42.60
17994;DHT22;9122;48.406;9.984;2023-07-20T17:11:49;27.00;42.70
17994;DHT22;9122;48.406;9.984;2023-07-20T17:14:36;27.00;42.80
17994;DHT22;9122;48.406;9.984;2023-07-20T17:17:21;26.90;42.50
17994;DHT22;9122;48.406;9.984;2023-07-20T17:20:06;26.90;42.60
17994;DHT22;9122;48.406;9.984;2023-07-20T17:22:51;26.90;43.10
17994;DHT22;9122;48.406;9.984;2023-07-20T17:25:35;26.90;42.70
17994;DHT22;9122;48.406;9.984;2023-07-20T17:28:19;26.90;43.10
17994;DHT22;9122;48.406;9.984;2023-07-20T17:31:04;26.80;42.70
17994;DHT22;9122;48.406;9.984;2023-07-20T17:33:48;26.80;42.80
17994;DHT22;9122;48.406;9.984;2023-07-20T17:36:33;26.70;42.50
17994;DHT22;9122;48.406;9.984;2023-07-20T17:39:17;26.70;42.30
17994;DHT22;9122;48.406;9.984;2023-07-20T17:42:02;26.70;42.60
17994;DHT22;9122;48.406;9.984;2023-07-20T17:44:46;26.70;42.70
17994;DHT22;9122;48.406;9.984;2023-07-20T17:47:31;26.60;42.80
17994;DHT22;9122;48.406;9.984;2023-07-20T17:50:15;26.60;42.60
17994;DHT22;9122;48.406;9.984;2023-07-20T17:53:00;26.60;42.60
17994;DHT22;9122;48.406;9.984;2023-07-20T17:55:45;26.60;42.60
17994;DHT22;9122;48.406;9.984;2023-07-20T17:58:30;26.50;42.90
17994;DHT22;9122;48.406;9.984;2023-07-20T18:01:14;26.50;42.70